Terminal Aerodrome Forecast
Issued by NWS

Home | Current Version | Previous Version | Text Only | Print | Product List | Glossary On
Versions: 1 2 3 4 5 6 7 8 9 10 11 12 13 14
000
FTUS45 KVEF 310520
TAFEED
TAF
KEED 310520Z 3106/0106 24011KT P6SM SCT250
     FM311900 19010G18KT P6SM SCT250
     FM010300 20009KT P6SM SCT250=

USA.gov is the U.S. government's official web portal to all federal, state and local government web resources and services.